Lanagan, MO (64847)

7:10 AM CDT on April 23, 2017 (GMT -0500)
Brush Creek | | Change Station
Active Advisory: Areal Flood Advisory Active Notice: Areal Flood Advisory

Elev 1056 ft 36.51 °N, 94.34 °W | Updated 14 seconds ago

Clear
Clear
37.2 °F
Feels Like 37 °F
N
0.0
Wind Variable Wind from SSE
Gusts 0.0 mph

Today
High -- | Low -- °F
--% Chance of Precip.
Yesterday
High -- | Low -- °F
Precip. -- in
Pressure 30.15 in
Visibility 10.0 miles
Clouds Clear
Windchill 37 °F
Dew Point 36 °F
Humidity 97%
Rainfall 0.00 in
Snow Depth Not available.
6:33 AM 7:59 PM
Waning Crescent, 12% visible
METAR KGMJ 231155Z AUTO 00000KT 10SM CLR 07/05 A3015 RMK AO2
Pressure 30.15 in
Visibility 10.0 miles
Clouds Clear
Windchill 37 °F
Dew Point 36 °F
Humidity 97%
Rainfall 0.00 in
Snow Depth Not available.
6:33 AM 7:59 PM
Waning Crescent, 12% visible
METAR KGMJ 231155Z AUTO 00000KT 10SM CLR 07/05 A3015 RMK AO2

Get Your Daily Forecast Email!

Thanks for signing up!

Be on the lookout for a verification email in your inbox.

You'll start receiving severe weather alerts in your inbox..

×

10-Day Weather Forecast

Almanac

Astronomy

Apr. 23, 2017 Rise Set
Actual Time
Civil Twilight
Nautical Twilight
Astronomical Twilight
Moon
Length of Visible Light
Length of Day
Tomorrow will be .
, % of the Moon is Illuminated

Today's Extremes

State Highs State Lows

Community

WunderPhotos

WunderBlog® & News

Nearby

Air Quality

  Air Quality AQ Index Pollutant
Not available.

Snow Depth

Station Depth Elevation

Earthquake Activity

City Distance Mag. Time & Date
Minimum magnitude displayed is 2.5.

Coastal Water Temperatures

Place Temperature

Stations

Nearby Weather Stations

Station Location Temp. Windchill Dew Point Humidity Wind Precip. Elev Updated Type
                   

Watches & Warnings

Areal Flood Advisory
Issued: 9:09 PM CDT Apr. 22, 2017 – National Weather Service

... The flood advisory remains in effect until 245 PM CDT Sunday for
Cherokee... Webster... Newton... Wright... Taney... southern Laclede...
Howell... southeastern Pulaski... Barry... Ozark... Shannon... Douglas...
Christian... Dent... stone... McDonald... Texas... Lawrence... Greene...
Jasper and Oregon counties...

At 907 PM CDT, the Department of Transportation reported rain from
the past few days was causing minor flooding to continue across
portions of the Ozarks and southeastern Kansas. Low water roads and
bridges across the advisory area remain impacted by flood waters.

Precautionary/preparedness actions...

Be especially cautious at night when it is harder to recognize the
dangers of flooding.

A flood advisory means river or stream flows are elevated, or ponding
of water in urban or other areas is occurring or is imminent.


Lat... Lon 3650 9462 3700 9462 3700 9507 3734 9507
      3728 9363 3742 9341 3742 9308 3779 9203
      3760 9203 3760 9181 3779 9180 3779 9131
      3770 9130 3769 9116 3751 9131 3714 9103
      3708 9122 3683 9123 3678 9112 3650 9113


Hatch